Time;durP1;ratioP1;P1;durP2;ratioP2;P2;SDS_P1;SDS_P2;PMS_P1;PMS_P2;Temp;Humidity;BMP_temperature;BMP_pressure;BME280_temperature;BME280_humidity;BME280_pressure;Samples;Min_cycle;Max_cycle;Signal;HPM_P1;HPM_P2
2023/01/19 00:01:04;;;;;;;11.90;5.50;;;;;;;;;;8253032;28;20724;-73
2023/01/19 00:05:05;;;;;;;12.65;6.22;;;;;;;;;;8255705;28;20037;-73
2023/01/19 00:09:05;;;;;;;9.68;5.75;;;;;;;;;;8238318;28;20053;-73
2023/01/19 00:13:05;;;;;;;9.00;4.93;;;;;;;;;;8252429;28;20018;-73
2023/01/19 00:17:06;;;;;;;8.85;5.90;;;;;;;;;;8251037;28;20132;-73
2023/01/19 00:21:06;;;;;;;9.70;5.78;;;;;;;;;;8251703;28;20292;-73
2023/01/19 00:25:06;;;;;;;10.93;5.93;;;;;;;;;;8240950;28;20026;-72
2023/01/19 00:29:06;;;;;;;9.18;5.70;;;;;;;;;;8253134;28;20335;-73
2023/01/19 00:33:07;;;;;;;9.73;5.80;;;;;;;;;;8250902;28;20037;-73
2023/01/19 00:37:08;;;;;;;9.70;5.90;;;;;;;;;;8252109;28;20026;-73
2023/01/19 00:41:08;;;;;;;10.23;6.30;;;;;;;;;;8252220;28;20025;-72
2023/01/19 00:45:17;;;;;;;10.88;6.38;;;;;;;;;;8253830;28;20137;-73
2023/01/19 00:49:17;;;;;;;10.02;5.90;;;;;;;;;;8251757;28;21050;-73
2023/01/19 00:53:17;;;;;;;10.30;6.50;;;;;;;;;;8252583;28;20376;-72
2023/01/19 00:57:18;;;;;;;14.18;6.55;;;;;;;;;;8252024;28;20847;-73
2023/01/19 01:01:18;;;;;;;11.75;5.93;;;;;;;;;;8251824;28;20049;-73
2023/01/19 01:05:18;;;;;;;9.05;6.13;;;;;;;;;;8252831;28;20104;-73
2023/01/19 01:09:19;;;;;;;11.02;6.18;;;;;;;;;;8248145;28;20052;-73
2023/01/19 01:13:19;;;;;;;9.43;6.28;;;;;;;;;;8248906;28;20034;-73
2023/01/19 01:17:23;;;;;;;9.98;6.20;;;;;;;;;;8249140;28;20026;-72
2023/01/19 01:21:26;;;;;;;10.88;5.72;;;;;;;;;;8234048;28;20288;-73
2023/01/19 01:25:27;;;;;;;7.93;4.85;;;;;;;;;;8253167;28;20053;-73
2023/01/19 01:29:27;;;;;;;10.77;6.05;;;;;;;;;;8250688;28;20029;-73
2023/01/19 01:33:27;;;;;;;11.85;5.60;;;;;;;;;;8250842;28;20446;-72
2023/01/19 01:37:27;;;;;;;11.77;6.40;;;;;;;;;;8234054;28;20081;-72
2023/01/19 01:41:28;;;;;;;8.57;5.13;;;;;;;;;;8251732;28;20663;-73
2023/01/19 01:45:30;;;;;;;12.60;5.63;;;;;;;;;;8245568;28;20030;-73
2023/01/19 01:49:31;;;;;;;13.38;5.70;;;;;;;;;;8256186;28;20483;-72
2023/01/19 01:53:32;;;;;;;10.32;5.82;;;;;;;;;;8257038;28;20485;-73
2023/01/19 01:57:37;;;;;;;13.27;6.38;;;;;;;;;;8257328;28;20292;-73
2023/01/19 02:05:58;;;;;;;8.60;6.00;;;;;;;;;;8255993;28;20029;-73
2023/01/19 02:14:18;;;;;;;13.82;5.65;;;;;;;;;;8256127;28;20045;-72
2023/01/19 02:18:19;;;;;;;10.25;5.82;;;;;;;;;;8238556;28;20030;-72
2023/01/19 02:22:30;;;;;;;11.27;5.95;;;;;;;;;;8254953;28;20545;-72
2023/01/19 02:26:38;;;;;;;11.65;6.20;;;;;;;;;;8256177;28;20137;-73
2023/01/19 02:30:39;;;;;;;10.70;6.30;;;;;;;;;;8252810;28;20034;-72
2023/01/19 02:34:40;;;;;;;14.40;6.57;;;;;;;;;;8256632;28;20053;-73
2023/01/19 02:38:40;;;;;;;9.23;6.32;;;;;;;;;;8243492;28;20032;-73
2023/01/19 02:42:51;;;;;;;12.40;8.15;;;;;;;;;;8257746;28;20084;-73
2023/01/19 02:46:54;;;;;;;11.40;6.82;;;;;;;;;;8252071;28;20034;-73
2023/01/19 02:51:04;;;;;;;15.82;7.40;;;;;;;;;;8254657;28;20036;-73
2023/01/19 02:55:05;;;;;;;12.27;7.40;;;;;;;;;;8256442;28;20035;-72
2023/01/19 02:59:12;;;;;;;15.50;6.95;;;;;;;;;;8252918;28;20140;-73
2023/01/19 03:03:29;;;;;;;11.70;6.97;;;;;;;;;;8253755;28;20038;-72
2023/01/19 03:07:49;;;;;;;13.60;7.93;;;;;;;;;;8254467;28;20663;-72
2023/01/19 03:11:53;;;;;;;13.98;6.63;;;;;;;;;;8254664;28;20028;-73
2023/01/19 03:15:56;;;;;;;14.13;8.20;;;;;;;;;;8254466;28;20041;-73
2023/01/19 03:19:57;;;;;;;11.70;6.80;;;;;;;;;;8241254;28;20033;-73
2023/01/19 03:24:01;;;;;;;11.32;6.80;;;;;;;;;;8253278;28;20021;-73
2023/01/19 03:28:02;;;;;;;14.27;7.75;;;;;;;;;;8253365;28;20036;-72
2023/01/19 03:32:05;;;;;;;11.38;7.35;;;;;;;;;;8253175;28;20065;-73
2023/01/19 03:36:08;;;;;;;11.98;6.85;;;;;;;;;;8253550;28;20034;-73
2023/01/19 03:40:09;;;;;;;11.07;7.25;;;;;;;;;;8252892;28;20030;-72
2023/01/19 03:44:10;;;;;;;12.32;7.30;;;;;;;;;;8253879;28;20022;-72
2023/01/19 03:48:11;;;;;;;10.63;7.88;;;;;;;;;;8252253;28;20474;-73
2023/01/19 03:52:11;;;;;;;9.38;6.22;;;;;;;;;;8255382;28;20029;-72
2023/01/19 03:56:22;;;;;;;10.90;7.03;;;;;;;;;;8252657;28;20152;-73
2023/01/19 04:00:23;;;;;;;12.98;6.97;;;;;;;;;;8254648;28;20050;-73
2023/01/19 04:04:24;;;;;;;10.23;6.97;;;;;;;;;;8240280;28;20029;-73
2023/01/19 04:08:24;;;;;;;15.05;6.45;;;;;;;;;;8253656;28;20026;-73
2023/01/19 04:12:24;;;;;;;11.45;6.63;;;;;;;;;;8253886;28;21063;-73
2023/01/19 04:16:25;;;;;;;10.02;6.65;;;;;;;;;;8252905;28;20062;-73
2023/01/19 04:20:26;;;;;;;6.63;5.57;;;;;;;;;;8251941;28;20038;-73
2023/01/19 04:24:27;;;;;;;6.63;4.93;;;;;;;;;;8253260;28;20299;-73
2023/01/19 04:28:27;;;;;;;6.68;4.65;;;;;;;;;;8253287;28;20042;-73
2023/01/19 04:32:27;;;;;;;8.50;4.38;;;;;;;;;;8253087;28;20270;-73
2023/01/19 04:36:27;;;;;;;7.07;4.10;;;;;;;;;;8253707;28;20629;-73
2023/01/19 04:40:27;;;;;;;4.55;3.70;;;;;;;;;;8238406;28;20026;-73
2023/01/19 04:44:28;;;;;;;7.13;3.63;;;;;;;;;;8231505;28;20076;-73
2023/01/19 04:48:28;;;;;;;5.40;3.40;;;;;;;;;;8251397;28;20045;-72
2023/01/19 04:52:33;;;;;;;5.40;3.20;;;;;;;;;;8254039;28;20430;-73
2023/01/19 04:56:34;;;;;;;4.85;3.28;;;;;;;;;;8252731;28;20034;-73
2023/01/19 05:00:35;;;;;;;4.82;3.47;;;;;;;;;;8249874;28;20054;-73
2023/01/19 05:04:35;;;;;;;5.60;3.60;;;;;;;;;;8251654;28;20830;-73
2023/01/19 05:08:35;;;;;;;7.00;4.43;;;;;;;;;;8251850;28;20021;-73
2023/01/19 05:12:36;;;;;;;6.72;4.57;;;;;;;;;;8251388;28;20501;-73
2023/01/19 05:16:36;;;;;;;6.80;4.95;;;;;;;;;;8253756;28;20990;-73
2023/01/19 05:20:38;;;;;;;5.20;4.10;;;;;;;;;;8254818;28;20378;-73
2023/01/19 05:24:38;;;;;;;6.10;4.47;;;;;;;;;;8258751;28;20025;-73
2023/01/19 05:28:38;;;;;;;6.68;4.82;;;;;;;;;;8255062;28;20052;-74
2023/01/19 05:32:39;;;;;;;8.83;5.23;;;;;;;;;;8256733;28;20029;-73
2023/01/19 05:36:40;;;;;;;9.80;5.47;;;;;;;;;;8257944;28;20803;-73
2023/01/19 05:40:40;;;;;;;12.88;6.57;;;;;;;;;;8256194;28;20621;-73
2023/01/19 05:44:40;;;;;;;10.10;5.63;;;;;;;;;;8249754;28;20106;-73
2023/01/19 05:48:40;;;;;;;9.05;5.70;;;;;;;;;;8255250;28;20757;-73
2023/01/19 05:52:40;;;;;;;7.20;5.97;;;;;;;;;;8255972;28;20037;-73
2023/01/19 05:56:41;;;;;;;9.07;5.93;;;;;;;;;;8255223;28;20083;-73
2023/01/19 06:00:41;;;;;;;10.13;5.82;;;;;;;;;;8252933;28;20638;-73
2023/01/19 06:04:42;;;;;;;9.55;5.90;;;;;;;;;;8256595;28;20022;-72
2023/01/19 06:08:42;;;;;;;7.90;6.15;;;;;;;;;;8256089;28;20061;-73
2023/01/19 06:12:42;;;;;;;7.95;5.70;;;;;;;;;;8255764;28;20379;-72
2023/01/19 06:16:42;;;;;;;7.70;5.53;;;;;;;;;;8255761;28;20030;-72
2023/01/19 06:20:42;;;;;;;8.70;5.07;;;;;;;;;;8257509;28;20520;-73
2023/01/19 06:24:43;;;;;;;11.55;6.35;;;;;;;;;;8256265;28;20324;-73
2023/01/19 06:28:43;;;;;;;10.85;6.28;;;;;;;;;;8253543;28;20029;-72
2023/01/19 06:32:43;;;;;;;10.07;6.20;;;;;;;;;;8254925;28;20034;-73
2023/01/19 06:36:44;;;;;;;9.70;6.50;;;;;;;;;;8256417;28;20034;-73
2023/01/19 06:40:44;;;;;;;7.85;6.13;;;;;;;;;;8255046;28;20018;-73
2023/01/19 06:44:46;;;;;;;12.40;6.95;;;;;;;;;;8256137;28;20022;-72
2023/01/19 06:48:47;;;;;;;13.75;8.30;;;;;;;;;;8254457;28;20149;-73
2023/01/19 06:52:49;;;;;;;9.20;6.72;;;;;;;;;;8256901;28;20064;-73
2023/01/19 06:56:51;;;;;;;10.63;6.57;;;;;;;;;;8254521;28;20784;-72
2023/01/19 07:00:51;;;;;;;10.65;6.85;;;;;;;;;;8241808;28;20110;-74
2023/01/19 07:04:51;;;;;;;11.13;6.93;;;;;;;;;;8255523;28;20969;-73
2023/01/19 07:08:52;;;;;;;8.70;6.20;;;;;;;;;;8253712;28;20600;-73
2023/01/19 07:12:55;;;;;;;10.98;6.93;;;;;;;;;;8255175;28;20140;-73
2023/01/19 07:16:55;;;;;;;11.27;7.13;;;;;;;;;;8255274;28;20041;-73
2023/01/19 07:20:56;;;;;;;10.50;7.25;;;;;;;;;;8255015;28;20029;-73
2023/01/19 07:24:57;;;;;;;9.18;7.00;;;;;;;;;;8255331;28;20038;-73
2023/01/19 07:28:57;;;;;;;9.73;6.93;;;;;;;;;;8252970;28;20080;-72
2023/01/19 07:32:57;;;;;;;11.18;7.75;;;;;;;;;;8235441;28;20034;-73
2023/01/19 07:36:58;;;;;;;11.50;7.47;;;;;;;;;;8255429;28;20053;-73
2023/01/19 07:41:05;;;;;;;12.20;7.43;;;;;;;;;;8252076;28;20034;-73
2023/01/19 07:45:06;;;;;;;10.35;7.20;;;;;;;;;;8251208;28;20032;-73
2023/01/19 07:49:07;;;;;;;11.23;7.00;;;;;;;;;;8251716;28;20030;-72
2023/01/19 07:53:07;;;;;;;9.13;6.63;;;;;;;;;;8239764;28;20044;-73
2023/01/19 07:57:07;;;;;;;9.57;6.60;;;;;;;;;;8250987;28;20509;-73
2023/01/19 08:01:09;;;;;;;10.73;7.55;;;;;;;;;;8252910;28;20042;-73
2023/01/19 08:05:09;;;;;;;8.82;6.40;;;;;;;;;;8240841;28;20473;-73
2023/01/19 08:09:10;;;;;;;9.77;7.35;;;;;;;;;;8240072;28;20026;-73
2023/01/19 08:13:10;;;;;;;12.48;7.15;;;;;;;;;;8230880;28;20678;-73
2023/01/19 08:17:11;;;;;;;11.13;6.60;;;;;;;;;;8244083;28;20092;-73
2023/01/19 08:21:11;;;;;;;8.20;6.00;;;;;;;;;;8226500;28;20037;-72
2023/01/19 08:25:12;;;;;;;8.68;6.60;;;;;;;;;;8239710;28;20026;-73
2023/01/19 08:29:12;;;;;;;7.78;5.53;;;;;;;;;;8250745;28;20966;-73
2023/01/19 08:33:12;;;;;;;9.00;5.57;;;;;;;;;;8251746;28;20299;-73
2023/01/19 08:37:12;;;;;;;5.63;4.75;;;;;;;;;;8242990;28;20384;-73
2023/01/19 08:41:15;;;;;;;5.53;4.75;;;;;;;;;;8251776;28;20021;-73
2023/01/19 08:45:15;;;;;;;7.40;4.88;;;;;;;;;;8249818;28;20034;-73
2023/01/19 08:49:15;;;;;;;6.43;4.68;;;;;;;;;;8251856;28;20092;-73
2023/01/19 08:53:16;;;;;;;5.38;4.63;;;;;;;;;;8257629;28;20806;-73
2023/01/19 08:57:16;;;;;;;8.05;4.82;;;;;;;;;;8258556;28;20030;-73
2023/01/19 09:01:19;;;;;;;6.90;4.78;;;;;;;;;;8257944;28;20042;-73
2023/01/19 09:05:19;;;;;;;7.82;5.53;;;;;;;;;;8256850;28;20037;-73
2023/01/19 09:09:19;;;;;;;9.02;6.00;;;;;;;;;;8259280;28;20021;-72
2023/01/19 09:13:19;;;;;;;10.88;6.50;;;;;;;;;;8235716;28;20462;-73
2023/01/19 09:17:19;;;;;;;10.10;6.22;;;;;;;;;;8250725;28;20034;-73
2023/01/19 09:21:20;;;;;;;10.93;7.03;;;;;;;;;;8257467;28;20084;-73
2023/01/19 09:25:20;;;;;;;11.80;7.78;;;;;;;;;;8259771;28;20774;-73
2023/01/19 09:29:21;;;;;;;9.88;6.43;;;;;;;;;;8256070;28;20053;-73
2023/01/19 09:33:22;;;;;;;10.02;7.55;;;;;;;;;;8243844;28;20029;-73
2023/01/19 09:37:22;;;;;;;8.85;6.47;;;;;;;;;;8232630;28;20121;-73
2023/01/19 09:41:24;;;;;;;8.95;7.18;;;;;;;;;;8253342;28;20068;-73
2023/01/19 09:45:28;;;;;;;9.98;6.90;;;;;;;;;;8237617;28;20293;-73
2023/01/19 09:49:38;;;;;;;9.90;6.70;;;;;;;;;;8255046;28;20041;-73
2023/01/19 09:53:43;;;;;;;8.00;5.70;;;;;;;;;;8258217;28;20037;-73
2023/01/19 09:57:44;;;;;;;7.15;5.88;;;;;;;;;;8255757;28;20117;-73
2023/01/19 10:01:48;;;;;;;7.90;6.25;;;;;;;;;;8252002;28;20042;-73
2023/01/19 10:05:48;;;;;;;10.32;6.97;;;;;;;;;;8250339;28;20025;-73
2023/01/19 10:10:06;;;;;;;8.02;6.43;;;;;;;;;;8253608;28;20022;-73
2023/01/19 10:14:13;;;;;;;7.10;5.45;;;;;;;;;;8258304;28;20022;-73
2023/01/19 10:18:21;;;;;;;9.52;6.38;;;;;;;;;;8253153;28;20037;-73
2023/01/19 10:22:23;;;;;;;11.18;6.97;;;;;;;;;;8259727;28;20026;-73
2023/01/19 10:26:24;;;;;;;7.95;5.75;;;;;;;;;;8238845;28;20123;-72
2023/01/19 10:30:26;;;;;;;9.07;6.03;;;;;;;;;;8254723;28;20040;-72
2023/01/19 10:34:26;;;;;;;8.27;6.05;;;;;;;;;;8255306;28;20044;-73
2023/01/19 10:38:29;;;;;;;8.98;5.95;;;;;;;;;;8257358;28;20708;-73
2023/01/19 10:42:29;;;;;;;9.50;5.28;;;;;;;;;;8257647;28;20025;-73
2023/01/19 10:46:36;;;;;;;6.22;4.68;;;;;;;;;;8254468;28;20487;-73
2023/01/19 10:50:38;;;;;;;8.90;4.80;;;;;;;;;;8253678;28;20083;-73
2023/01/19 10:54:41;;;;;;;6.20;4.30;;;;;;;;;;8234579;28;20065;-72
2023/01/19 10:58:41;;;;;;;6.40;4.80;;;;;;;;;;8256153;28;20212;-72
2023/01/19 11:02:48;;;;;;;11.05;5.32;;;;;;;;;;8255008;28;20168;-73
2023/01/19 11:06:48;;;;;;;7.88;4.75;;;;;;;;;;8243402;28;20029;-73
2023/01/19 11:11:03;;;;;;;7.07;4.77;;;;;;;;;;8252741;28;20017;-75
2023/01/19 11:15:11;;;;;;;6.28;4.95;;;;;;;;;;8235246;28;21026;-75
2023/01/19 11:19:18;;;;;;;11.23;5.30;;;;;;;;;;8255622;28;20044;-74
2023/01/19 11:23:23;;;;;;;9.10;4.95;;;;;;;;;;8252500;28;20026;-75
2023/01/19 11:27:24;;;;;;;6.53;4.63;;;;;;;;;;8254036;28;20233;-75
2023/01/19 11:31:27;;;;;;;8.55;5.10;;;;;;;;;;8256465;28;20070;-73
2023/01/19 11:35:27;;;;;;;8.05;4.95;;;;;;;;;;8237065;28;20048;-74
2023/01/19 11:39:28;;;;;;;6.47;4.60;;;;;;;;;;8243252;28;20037;-74
2023/01/19 11:43:29;;;;;;;8.43;3.70;;;;;;;;;;8234564;28;20259;-74
2023/01/19 11:47:35;;;;;;;9.55;4.80;;;;;;;;;;8248416;28;20890;-74
2023/01/19 11:51:50;;;;;;;6.72;4.15;;;;;;;;;;8254790;28;20025;-74
2023/01/19 11:56:05;;;;;;;7.35;4.43;;;;;;;;;;8253678;28;20039;-74
2023/01/19 12:00:05;;;;;;;;;;;;;;;;;;8253149;28;20034;-74
2023/01/19 12:04:10;;;;;;;7.32;4.10;;;;;;;;;;8250960;28;19917;-73
2023/01/19 12:08:13;;;;;;;4.97;4.35;;;;;;;;;;8252541;28;20048;-74
2023/01/19 12:12:29;;;;;;;7.15;4.03;;;;;;;;;;8254513;28;20365;-74
2023/01/19 12:16:31;;;;;;;7.43;4.80;;;;;;;;;;8253306;28;20034;-74
2023/01/19 12:20:43;;;;;;;6.22;3.80;;;;;;;;;;8236442;28;20030;-73
2023/01/19 12:24:48;;;;;;;4.53;3.50;;;;;;;;;;8230489;28;20478;-74
2023/01/19 12:28:49;;;;;;;6.90;4.22;;;;;;;;;;8227783;28;20060;-73
2023/01/19 12:32:50;;;;;;;9.50;3.95;;;;;;;;;;8249755;28;20095;-74
2023/01/19 12:36:50;;;;;;;5.93;4.07;;;;;;;;;;8224857;28;20119;-74
2023/01/19 12:41:04;;;;;;;6.43;3.80;;;;;;;;;;8250851;28;20148;-73
2023/01/19 12:45:06;;;;;;;7.10;4.20;;;;;;;;;;8251235;28;20029;-74
2023/01/19 12:49:15;;;;;;;6.20;3.88;;;;;;;;;;8248737;28;20026;-73
2023/01/19 12:53:18;;;;;;;8.23;4.20;;;;;;;;;;8251262;28;20620;-74
2023/01/19 12:57:21;;;;;;;8.70;4.13;;;;;;;;;;8249540;28;20112;-74
2023/01/19 13:01:23;;;;;;;6.70;3.70;;;;;;;;;;8247852;28;20046;-74
2023/01/19 13:05:29;;;;;;;7.97;3.90;;;;;;;;;;8247712;28;20065;-73
2023/01/19 13:09:34;;;;;;;5.65;3.78;;;;;;;;;;8250056;28;20026;-74
2023/01/19 13:13:35;;;;;;;6.65;3.45;;;;;;;;;;8222143;28;20084;-74
2023/01/19 13:17:54;;;;;;;5.35;3.22;;;;;;;;;;8247292;28;20096;-74
2023/01/19 13:21:54;;;;;;;7.00;2.95;;;;;;;;;;8251735;28;20026;-74
2023/01/19 13:26:01;;;;;;;4.13;3.13;;;;;;;;;;8238284;28;20041;-74
2023/01/19 13:30:08;;;;;;;5.30;2.72;;;;;;;;;;8224899;28;20033;-73
2023/01/19 13:34:13;;;;;;;4.82;2.80;;;;;;;;;;8236474;28;20073;-74
2023/01/19 13:38:13;;;;;;;4.43;2.78;;;;;;;;;;8251493;28;20529;-74
2023/01/19 13:42:15;;;;;;;5.05;2.45;;;;;;;;;;8253882;28;20123;-74
2023/01/19 13:46:17;;;;;;;5.65;2.50;;;;;;;;;;8257227;28;20076;-74
2023/01/19 13:50:22;;;;;;;4.55;2.38;;;;;;;;;;8231060;28;20040;-74
2023/01/19 13:54:24;;;;;;;4.53;2.75;;;;;;;;;;8253534;28;20021;-74
2023/01/19 13:58:25;;;;;;;3.30;2.63;;;;;;;;;;8249917;28;20666;-74
2023/01/19 14:02:25;;;;;;;3.85;2.50;;;;;;;;;;8255336;28;20705;-74
2023/01/19 14:06:36;;;;;;;3.20;2.22;;;;;;;;;;8251483;28;20025;-74
2023/01/19 14:10:55;;;;;;;4.38;2.72;;;;;;;;;;8254478;28;20022;-73
2023/01/19 14:14:55;;;;;;;3.78;2.83;;;;;;;;;;8253811;28;20033;-74
2023/01/19 14:18:59;;;;;;;5.15;2.78;;;;;;;;;;8251611;28;20075;-74
2023/01/19 14:22:59;;;;;;;3.42;2.88;;;;;;;;;;8251653;28;20629;-74
2023/01/19 14:27:17;;;;;;;4.63;2.63;;;;;;;;;;8254265;28;20104;-73
2023/01/19 14:31:19;;;;;;;5.80;2.63;;;;;;;;;;8253433;28;20212;-74
2023/01/19 14:35:23;;;;;;;5.00;2.90;;;;;;;;;;8246826;28;20076;-74
2023/01/19 14:39:26;;;;;;;5.28;2.72;;;;;;;;;;8251224;28;20445;-73
2023/01/19 14:43:28;;;;;;;5.43;2.92;;;;;;;;;;8253026;28;20109;-74
2023/01/19 14:47:31;;;;;;;3.78;3.00;;;;;;;;;;8252225;28;20036;-74
2023/01/19 14:51:31;;;;;;;6.55;3.45;;;;;;;;;;8254071;28;20065;-73
2023/01/19 14:55:35;;;;;;;6.50;3.15;;;;;;;;;;8250352;28;20888;-73
2023/01/19 14:59:35;;;;;;;3.50;2.50;;;;;;;;;;8253369;28;20049;-74
2023/01/19 15:03:35;;;;;;;6.97;2.70;;;;;;;;;;8235590;28;20034;-74
2023/01/19 15:07:37;;;;;;;4.22;2.65;;;;;;;;;;8253008;28;20075;-73
2023/01/19 15:11:37;;;;;;;3.25;2.70;;;;;;;;;;8253119;28;20041;-73
2023/01/19 15:15:37;;;;;;;5.72;2.80;;;;;;;;;;8246952;28;20044;-74
2023/01/19 15:19:37;;;;;;;5.07;3.40;;;;;;;;;;8252208;28;20034;-73
2023/01/19 15:23:38;;;;;;;3.95;2.80;;;;;;;;;;8250996;28;20030;-74
2023/01/19 15:27:38;;;;;;;3.47;3.03;;;;;;;;;;8249659;28;20041;-74
2023/01/19 15:31:38;;;;;;;8.55;3.55;;;;;;;;;;8232407;28;20038;-74
2023/01/19 15:35:38;;;;;;;5.65;3.08;;;;;;;;;;8248109;28;20014;-74
2023/01/19 15:39:38;;;;;;;4.15;3.10;;;;;;;;;;8234619;28;20032;-74
2023/01/19 15:43:39;;;;;;;6.22;3.13;;;;;;;;;;8251939;28;20024;-74
2023/01/19 15:47:39;;;;;;;8.13;3.30;;;;;;;;;;8249708;28;20263;-74
2023/01/19 15:51:39;;;;;;;6.03;3.17;;;;;;;;;;8253249;28;20045;-74
2023/01/19 15:55:39;;;;;;;4.65;3.20;;;;;;;;;;8242199;28;20037;-74
2023/01/19 15:59:40;;;;;;;4.00;2.80;;;;;;;;;;8251340;28;20141;-73
2023/01/19 16:03:40;;;;;;;6.07;3.17;;;;;;;;;;8253137;28;20022;-74
2023/01/19 16:07:40;;;;;;;3.53;2.70;;;;;;;;;;8253691;28;20026;-74
2023/01/19 16:11:40;;;;;;;7.45;3.30;;;;;;;;;;8235769;28;20022;-73
2023/01/19 16:15:41;;;;;;;4.82;3.00;;;;;;;;;;8253895;28;20723;-74
2023/01/19 16:19:41;;;;;;;4.60;3.10;;;;;;;;;;8245510;28;20036;-73
2023/01/19 16:23:41;;;;;;;8.93;3.65;;;;;;;;;;8253130;28;20545;-74
2023/01/19 16:27:41;;;;;;;7.00;3.67;;;;;;;;;;8252390;28;20026;-74
2023/01/19 16:31:44;;;;;;;7.35;4.38;;;;;;;;;;8251816;28;20485;-74
2023/01/19 16:35:44;;;;;;;7.15;3.90;;;;;;;;;;8253396;28;20053;-74
2023/01/19 16:39:44;;;;;;;6.60;3.53;;;;;;;;;;8252734;28;20018;-73
2023/01/19 16:43:51;;;;;;;4.45;3.22;;;;;;;;;;8226184;28;20018;-74
2023/01/19 16:47:52;;;;;;;3.83;2.92;;;;;;;;;;8251759;28;20490;-73
2023/01/19 16:51:53;;;;;;;7.18;3.40;;;;;;;;;;8235774;28;20034;-74
2023/01/19 16:55:53;;;;;;;7.32;3.97;;;;;;;;;;8252320;28;20022;-74
2023/01/19 16:59:54;;;;;;;4.05;3.10;;;;;;;;;;8252052;28;20408;-74
2023/01/19 17:03:54;;;;;;;4.60;2.97;;;;;;;;;;8252911;28;20145;-74
2023/01/19 17:07:54;;;;;;;5.95;3.70;;;;;;;;;;8231181;28;20046;-74
2023/01/19 17:11:54;;;;;;;6.43;3.45;;;;;;;;;;8251257;28;20033;-74
2023/01/19 17:15:58;;;;;;;6.40;4.13;;;;;;;;;;8255999;28;20042;-74
2023/01/19 17:19:59;;;;;;;6.68;3.95;;;;;;;;;;8256603;28;20124;-74
2023/01/19 17:23:59;;;;;;;9.48;3.85;;;;;;;;;;8257798;28;20064;-74
2023/01/19 17:28:00;;;;;;;5.30;4.05;;;;;;;;;;8239077;28;20368;-74
2023/01/19 17:32:00;;;;;;;5.25;4.13;;;;;;;;;;8239233;28;20072;-73
2023/01/19 17:36:04;;;;;;;4.80;3.92;;;;;;;;;;8254268;28;20730;-74
2023/01/19 17:40:04;;;;;;;6.13;3.67;;;;;;;;;;8257741;28;20026;-75
2023/01/19 17:44:05;;;;;;;6.90;3.88;;;;;;;;;;8257429;28;20118;-73
2023/01/19 17:48:05;;;;;;;5.00;3.50;;;;;;;;;;8257074;28;20034;-74
2023/01/19 17:52:06;;;;;;;4.20;3.38;;;;;;;;;;8258017;28;20034;-74
2023/01/19 17:56:10;;;;;;;5.50;3.75;;;;;;;;;;8256217;28;20148;-74
2023/01/19 18:00:10;;;;;;;6.40;3.65;;;;;;;;;;8250267;28;20102;-74
2023/01/19 18:04:11;;;;;;;5.53;4.00;;;;;;;;;;8239639;28;20039;-74
2023/01/19 18:08:11;;;;;;;4.90;3.40;;;;;;;;;;8253719;28;20062;-74
2023/01/19 18:12:11;;;;;;;5.80;3.30;;;;;;;;;;8250520;28;20087;-74
2023/01/19 18:16:13;;;;;;;5.95;3.70;;;;;;;;;;8252147;28;20336;-74
2023/01/19 18:20:13;;;;;;;5.32;3.80;;;;;;;;;;8250436;28;20030;-74
2023/01/19 18:24:14;;;;;;;5.43;3.70;;;;;;;;;;8249201;28;20037;-74
2023/01/19 18:28:14;;;;;;;5.97;3.45;;;;;;;;;;8252512;28;20335;-74
2023/01/19 18:32:14;;;;;;;7.60;4.00;;;;;;;;;;8232579;28;20037;-74
2023/01/19 18:36:15;;;;;;;7.78;3.80;;;;;;;;;;8239718;28;20068;-74
2023/01/19 18:40:15;;;;;;;4.88;3.40;;;;;;;;;;8249796;28;20040;-74
2023/01/19 18:44:16;;;;;;;4.13;3.67;;;;;;;;;;8252988;28;20120;-74
2023/01/19 18:48:16;;;;;;;7.22;4.45;;;;;;;;;;8248838;28;20038;-74
2023/01/19 18:52:16;;;;;;;8.20;4.72;;;;;;;;;;8240270;28;20033;-74
2023/01/19 18:56:16;;;;;;;6.57;4.40;;;;;;;;;;8253275;28;20018;-74
2023/01/19 19:00:17;;;;;;;9.48;4.68;;;;;;;;;;8231554;28;20018;-74
2023/01/19 19:04:17;;;;;;;9.07;5.30;;;;;;;;;;8229358;28;20032;-74
2023/01/19 19:08:17;;;;;;;5.78;4.07;;;;;;;;;;8249223;28;20023;-74
2023/01/19 19:12:17;;;;;;;6.38;3.95;;;;;;;;;;8249673;28;20484;-74
2023/01/19 19:16:18;;;;;;;5.75;3.85;;;;;;;;;;8249191;28;20281;-74
2023/01/19 19:20:19;;;;;;;9.23;4.15;;;;;;;;;;8248445;28;20737;-74
2023/01/19 19:24:19;;;;;;;7.07;4.40;;;;;;;;;;8232045;28;20022;-73
2023/01/19 19:28:19;;;;;;;6.15;4.32;;;;;;;;;;8249590;28;20547;-74
2023/01/19 19:32:20;;;;;;;7.15;4.05;;;;;;;;;;8235953;28;20474;-75
2023/01/19 19:36:21;;;;;;;5.85;3.83;;;;;;;;;;8230374;28;20022;-74
2023/01/19 19:40:22;;;;;;;11.80;6.30;;;;;;;;;;8250715;28;20029;-74
2023/01/19 19:44:22;;;;;;;8.95;6.20;;;;;;;;;;8252320;28;20018;-74
2023/01/19 19:48:22;;;;;;;6.90;4.53;;;;;;;;;;8250596;28;20596;-74
2023/01/19 19:52:23;;;;;;;6.22;3.90;;;;;;;;;;8252886;28;20843;-74
2023/01/19 19:56:24;;;;;;;11.30;7.05;;;;;;;;;;8251242;28;20103;-74
2023/01/19 20:00:24;;;;;;;13.88;7.60;;;;;;;;;;8246789;28;20045;-74
2023/01/19 20:04:24;;;;;;;8.50;5.57;;;;;;;;;;8230768;28;20032;-75
2023/01/19 20:08:24;;;;;;;8.75;5.25;;;;;;;;;;8249158;28;20388;-74
2023/01/19 20:12:25;;;;;;;8.35;5.32;;;;;;;;;;8250645;28;20643;-74
2023/01/19 20:16:25;;;;;;;7.55;4.88;;;;;;;;;;8251435;28;20030;-75
2023/01/19 20:20:26;;;;;;;13.63;6.82;;;;;;;;;;8249481;28;20939;-74
2023/01/19 20:24:26;;;;;;;22.13;10.90;;;;;;;;;;8250521;28;20870;-74
2023/01/19 20:28:26;;;;;;;11.60;7.13;;;;;;;;;;8223395;28;20049;-74
2023/01/19 20:32:26;;;;;;;7.10;4.90;;;;;;;;;;8230048;28;20048;-73
2023/01/19 20:36:27;;;;;;;8.55;5.25;;;;;;;;;;8250127;28;21332;-75
2023/01/19 20:40:27;;;;;;;13.93;7.30;;;;;;;;;;8247796;28;20144;-75
2023/01/19 20:44:28;;;;;;;12.70;6.50;;;;;;;;;;8231937;28;20025;-75
2023/01/19 20:48:28;;;;;;;9.10;5.72;;;;;;;;;;8237668;28;20026;-75
2023/01/19 20:52:29;;;;;;;8.98;6.30;;;;;;;;;;8253450;28;20041;-76
2023/01/19 20:56:29;;;;;;;9.95;6.50;;;;;;;;;;8254246;28;20061;-74
2023/01/19 21:00:29;;;;;;;9.45;5.88;;;;;;;;;;8252872;28;20470;-75
2023/01/19 21:04:29;;;;;;;8.43;5.60;;;;;;;;;;8245954;28;20034;-74
2023/01/19 21:08:30;;;;;;;7.63;5.85;;;;;;;;;;8252679;28;20256;-75
2023/01/19 21:12:30;;;;;;;9.07;6.45;;;;;;;;;;8229875;28;20034;-73
2023/01/19 21:16:31;;;;;;;9.63;5.65;;;;;;;;;;8231071;28;20040;-73
2023/01/19 21:20:31;;;;;;;14.52;6.85;;;;;;;;;;8249145;28;21028;-73
2023/01/19 21:24:32;;;;;;;10.68;6.20;;;;;;;;;;8252109;28;20174;-73
2023/01/19 21:28:32;;;;;;;11.10;6.43;;;;;;;;;;8251714;28;20494;-73
2023/01/19 21:32:32;;;;;;;7.78;6.30;;;;;;;;;;8250936;28;20034;-73
2023/01/19 21:36:32;;;;;;;9.80;5.97;;;;;;;;;;8245865;28;20030;-73
2023/01/19 21:40:32;;;;;;;9.27;6.05;;;;;;;;;;8233780;28;20022;-73
2023/01/19 21:44:33;;;;;;;9.65;5.93;;;;;;;;;;8250903;28;20021;-73
2023/01/19 21:48:33;;;;;;;8.57;5.68;;;;;;;;;;8249003;28;20034;-73
2023/01/19 21:52:33;;;;;;;6.80;5.07;;;;;;;;;;8253117;28;20366;-74
2023/01/19 21:56:34;;;;;;;6.80;4.57;;;;;;;;;;8248530;28;20029;-73
2023/01/19 22:00:34;;;;;;;7.43;5.10;;;;;;;;;;8233336;28;20092;-74
2023/01/19 22:04:34;;;;;;;9.75;5.15;;;;;;;;;;8256623;28;20033;-73
2023/01/19 22:08:35;;;;;;;7.00;4.63;;;;;;;;;;8256873;28;21140;-74
2023/01/19 22:12:37;;;;;;;8.43;4.65;;;;;;;;;;8253941;28;20291;-74
2023/01/19 22:16:37;;;;;;;6.57;4.90;;;;;;;;;;8252083;28;20034;-74
2023/01/19 22:20:37;;;;;;;8.43;5.18;;;;;;;;;;8249418;28;20485;-74
2023/01/19 22:24:38;;;;;;;7.03;4.72;;;;;;;;;;8255408;28;20014;-74
2023/01/19 22:28:38;;;;;;;8.30;5.57;;;;;;;;;;8255704;28;20032;-74
2023/01/19 22:32:38;;;;;;;9.50;6.00;;;;;;;;;;8252850;28;20030;-74
2023/01/19 22:36:38;;;;;;;7.93;5.80;;;;;;;;;;8235579;28;20026;-74
2023/01/19 22:40:39;;;;;;;7.43;5.63;;;;;;;;;;8256068;28;20135;-74
2023/01/19 22:44:39;;;;;;;10.27;5.18;;;;;;;;;;8256532;28;20034;-74
2023/01/19 22:48:39;;;;;;;7.43;5.40;;;;;;;;;;8258115;28;20085;-74
2023/01/19 22:52:40;;;;;;;8.50;6.05;;;;;;;;;;8258641;28;20037;-74
2023/01/19 22:56:40;;;;;;;9.70;5.65;;;;;;;;;;8257858;28;20050;-74
2023/01/19 23:00:40;;;;;;;8.43;5.57;;;;;;;;;;8258168;28;20743;-74
2023/01/19 23:04:41;;;;;;;8.68;5.75;;;;;;;;;;8258207;28;20030;-74
2023/01/19 23:08:41;;;;;;;9.68;6.25;;;;;;;;;;8258552;28;20072;-73
2023/01/19 23:12:41;;;;;;;11.80;5.85;;;;;;;;;;8258403;28;20030;-74
2023/01/19 23:16:41;;;;;;;8.90;5.85;;;;;;;;;;8256703;28;20096;-74
2023/01/19 23:20:42;;;;;;;9.82;6.20;;;;;;;;;;8255517;28;20026;-73
2023/01/19 23:24:42;;;;;;;10.30;5.57;;;;;;;;;;8257557;28;20029;-74
2023/01/19 23:28:43;;;;;;;8.40;5.45;;;;;;;;;;8239048;28;20136;-74
2023/01/19 23:32:47;;;;;;;10.15;6.30;;;;;;;;;;8255176;28;20034;-74
2023/01/19 23:36:47;;;;;;;8.52;5.05;;;;;;;;;;8257731;28;20395;-74
2023/01/19 23:40:47;;;;;;;8.20;5.80;;;;;;;;;;8254582;28;20040;-73
2023/01/19 23:44:47;;;;;;;11.18;6.45;;;;;;;;;;8256503;28;20774;-74
2023/01/19 23:48:47;;;;;;;10.40;6.00;;;;;;;;;;8255785;28;20111;-74
2023/01/19 23:52:48;;;;;;;9.60;5.95;;;;;;;;;;8256335;28;20049;-74
2023/01/19 23:56:48;;;;;;;8.75;6.20;;;;;;;;;;8255384;28;20013;-73
